Ludlow, Maine
Current Conditions -  °F | °C
As of 4:53 AM on Friday 28 Nov 2014 (Local Time) from KHUL Reporting Station
Clear Clear  
Wind Chill:   Ceiling: Unl
Heat Index:   Visibility: 10mi
Dew Point:   Wind: 0mph
Humidity: 84%   Direction: NA
Pressure: 30.01"   Gusts: NA
Location:  46.1163°N, 67.9329°W
Report Text: KHUL 280953Z AUTO 00000KT 10SM CLR M14/M16 A3001 RMK AO2 SLP172 I1000 T11391161
Loading
Personal Weather Stations






























Interactive Weather Map New forecast layout! Learn more

10-Day Weather Forecast

Advertisements
Track Severe Weather on mobile